Time;durP1;ratioP1;P1;durP2;ratioP2;P2;SDS_P1;SDS_P2;PMS_P1;PMS_P2;Temp;Humidity;BMP_temperature;BMP_pressure;BME280_temperature;BME280_humidity;BME280_pressure;Samples;Min_cycle;Max_cycle;Signal;HPM_P1;HPM_P2
2022/05/17 00:00:31;;;;;;;3.15;2.50;;;;;;;15.78;93.10;101924.66;10350646;28;20606;-76
2022/05/17 00:05:32;;;;;;;2.05;1.83;;;;;;;15.77;91.66;101923.81;10310508;28;20069;-76
2022/05/17 00:10:32;;;;;;;2.88;2.10;;;;;;;15.76;91.80;101921.28;10343792;28;20042;-75
2022/05/17 00:15:32;;;;;;;3.08;1.70;;;;;;;15.75;92.03;101928.63;10348452;28;20026;-76
2022/05/17 00:20:33;;;;;;;5.32;1.95;;;;;;;15.78;91.56;101936.41;10334819;28;20055;-76
2022/05/17 00:25:33;;;;;;;1.55;1.45;;;;;;;15.76;91.91;101937.66;10358144;28;20041;-76
2022/05/17 00:30:34;;;;;;;3.40;2.47;;;;;;;15.76;92.75;101924.88;10361167;28;20058;-76
2022/05/17 00:35:34;;;;;;;1.95;1.85;;;;;;;15.80;92.99;101928.84;10346779;28;20034;-76
2022/05/17 00:40:34;;;;;;;7.15;1.38;;;;;;;15.84;92.70;101928.44;10348473;28;20185;-76
2022/05/17 00:45:36;;;;;;;6.57;2.58;;;;;;;15.83;92.97;101930.34;10351084;28;20031;-76
2022/05/17 00:50:43;;;;;;;5.20;1.83;;;;;;;15.85;92.31;101924.66;10322399;28;20466;-76
2022/05/17 00:55:57;;;;;;;3.13;2.30;;;;;;;15.71;94.82;101941.03;10354520;28;20057;-76
2022/05/17 01:01:03;;;;;;;8.43;2.75;;;;;;;15.70;92.10;101935.78;10344966;28;20058;-76
2022/05/17 01:06:04;;;;;;;6.10;2.20;;;;;;;15.61;93.05;101936.97;10323546;28;20033;-76
2022/05/17 01:11:04;;;;;;;4.40;2.00;;;;;;;15.58;92.60;101930.88;10339288;28;20055;-75
2022/05/17 01:16:05;;;;;;;1.38;1.17;;;;;;;15.51;92.44;101940.09;10350040;28;20601;-75
2022/05/17 01:21:05;;;;;;;6.75;1.70;;;;;;;15.48;92.71;101940.50;10321580;28;20106;-76
2022/05/17 01:26:08;;;;;;;2.08;1.98;;;;;;;15.47;93.01;101942.38;10358304;28;20061;-76
2022/05/17 01:31:09;;;;;;;2.88;2.05;;;;;;;15.41;94.23;101939.63;10354941;28;20498;-76
2022/05/17 01:36:10;;;;;;;2.45;2.13;;;;;;;15.44;94.60;101947.41;10334892;28;20041;-76
2022/05/17 01:41:10;;;;;;;2.38;2.17;;;;;;;15.45;94.18;101944.47;10317071;28;20402;-76
2022/05/17 01:46:11;;;;;;;7.25;2.88;;;;;;;15.40;93.32;101940.66;10359244;28;20038;-75
2022/05/17 01:51:12;;;;;;;7.78;2.10;;;;;;;15.38;92.33;101929.09;10338997;28;20121;-76
2022/05/17 01:56:12;;;;;;;5.15;2.67;;;;;;;15.35;92.29;101936.69;10347240;28;20180;-76
2022/05/17 02:01:12;;;;;;;9.25;3.05;;;;;;;15.34;92.63;101931.41;10359542;28;20041;-76
2022/05/17 02:06:13;;;;;;;5.30;2.40;;;;;;;15.46;91.94;101943.44;10368545;28;20061;-74
2022/05/17 02:11:13;;;;;;;4.75;2.30;;;;;;;15.59;91.71;101950.81;10350814;28;20042;-74
2022/05/17 02:16:14;;;;;;;6.88;2.85;;;;;;;15.75;91.79;101949.63;10348137;28;20085;-76
2022/05/17 02:21:14;;;;;;;3.15;2.30;;;;;;;15.76;91.06;101946.72;10329798;28;20050;-75
2022/05/17 02:26:14;;;;;;;9.25;2.67;;;;;;;15.68;90.31;101941.44;10348396;28;20042;-75
2022/05/17 02:31:16;;;;;;;6.53;2.20;;;;;;;15.63;89.72;101948.50;10333165;28;20047;-73
2022/05/17 02:36:16;;;;;;;7.68;2.45;;;;;;;15.53;89.54;101947.00;10355272;28;20057;-74
2022/05/17 02:41:19;;;;;;;3.05;1.92;;;;;;;15.51;89.63;101951.84;10356034;28;20041;-74
2022/05/17 02:46:19;;;;;;;9.65;2.47;;;;;;;15.52;89.25;101950.81;10347238;28;20034;-74
2022/05/17 02:51:20;;;;;;;7.55;2.88;;;;;;;15.50;88.49;101955.59;10348650;28;20038;-74
2022/05/17 02:56:21;;;;;;;12.00;2.97;;;;;;;15.43;88.85;101954.75;10359742;28;20105;-75
2022/05/17 03:01:21;;;;;;;8.95;2.88;;;;;;;15.32;88.34;101949.91;10341391;28;20038;-74
2022/05/17 03:06:21;;;;;;;7.93;3.53;;;;;;;15.30;88.68;101947.34;10358586;28;20046;-74
2022/05/17 03:11:22;;;;;;;4.53;3.00;;;;;;;15.38;89.16;101968.19;10336302;28;20042;-75
2022/05/17 03:16:28;;;;;;;7.15;2.38;;;;;;;15.53;94.97;101970.75;10351183;28;20042;-74
2022/05/17 03:21:29;;;;;;;12.27;3.58;;;;;;;15.66;91.40;101968.06;10332275;28;20141;-74
2022/05/17 03:26:29;;;;;;;3.08;2.28;;;;;;;15.76;90.35;101967.69;10348249;28;20042;-75
2022/05/17 03:31:29;;;;;;;3.42;2.25;;;;;;;15.85;89.78;101982.00;10324414;28;20030;-76
2022/05/17 03:36:30;;;;;;;6.53;2.70;;;;;;;15.82;90.16;101977.81;10338451;28;20046;-75
2022/05/17 03:41:30;;;;;;;3.90;2.67;;;;;;;15.88;90.93;101996.09;10335801;28;20034;-74
2022/05/17 03:46:31;;;;;;;5.07;2.83;;;;;;;16.00;91.58;101997.19;10335556;28;20042;-75
2022/05/17 03:51:31;;;;;;;3.63;2.60;;;;;;;16.13;91.83;102004.56;10335088;28;20445;-74
2022/05/17 03:56:31;;;;;;;13.95;3.08;;;;;;;16.21;91.12;102003.53;10336100;28;20099;-75
2022/05/17 04:01:32;;;;;;;5.22;3.50;;;;;;;16.33;90.48;102004.59;10324725;28;20038;-75
2022/05/17 04:06:32;;;;;;;7.30;3.22;;;;;;;16.40;89.92;102001.84;10343562;28;20461;-75
2022/05/17 04:11:33;;;;;;;5.38;2.85;;;;;;;16.45;88.83;101996.63;10324878;28;20474;-73
2022/05/17 04:16:35;;;;;;;4.53;3.05;;;;;;;16.46;88.51;102004.63;10323946;28;20462;-75
2022/05/17 04:21:35;;;;;;;8.05;2.42;;;;;;;16.44;88.68;102014.09;10307573;28;20053;-75
2022/05/17 04:26:36;;;;;;;5.80;3.17;;;;;;;16.42;89.05;102017.00;10348499;28;20034;-73
2022/05/17 04:31:36;;;;;;;9.00;3.45;;;;;;;16.43;89.18;102024.19;10340371;28;20041;-75
2022/05/17 04:36:38;;;;;;;13.48;2.40;;;;;;;16.46;89.45;102031.09;10340017;28;20075;-73
2022/05/17 04:41:38;;;;;;;8.63;3.35;;;;;;;16.52;89.62;102028.38;10338508;28;20041;-73
2022/05/17 04:46:38;;;;;;;7.22;3.38;;;;;;;16.58;89.21;102029.44;10337996;28;20038;-73
2022/05/17 04:51:39;;;;;;;16.30;4.93;;;;;;;16.61;90.26;102034.47;10340190;28;20088;-73
2022/05/17 04:56:39;;;;;;;3.45;2.95;;;;;;;16.63;90.55;102031.56;10339744;28;20121;-74
2022/05/17 05:01:40;;;;;;;8.43;2.95;;;;;;;16.61;89.04;102033.63;10339031;28;20034;-75
2022/05/17 05:06:40;;;;;;;3.20;2.47;;;;;;;16.45;88.89;102035.72;10305620;28;20124;-74
2022/05/17 05:11:40;;;;;;;11.55;3.25;;;;;;;16.37;89.10;102038.69;10321665;28;20533;-74
2022/05/17 05:16:41;;;;;;;2.28;2.08;;;;;;;16.32;89.12;102041.19;10339747;28;20045;-73
2022/05/17 05:21:41;;;;;;;8.18;2.90;;;;;;;16.26;88.90;102051.03;10321014;28;20046;-73
2022/05/17 05:26:41;;;;;;;8.40;3.03;;;;;;;16.19;88.96;102046.63;10337331;28;20089;-73
2022/05/17 05:31:42;;;;;;;15.52;2.80;;;;;;;16.12;88.25;102043.03;10337769;28;20038;-73
2022/05/17 05:36:43;;;;;;;7.00;2.55;;;;;;;15.96;88.19;102045.09;10337815;28;20042;-74
2022/05/17 05:41:44;;;;;;;11.70;3.47;;;;;;;15.78;88.29;102044.81;10337557;28;20041;-76
2022/05/17 05:46:44;;;;;;;6.07;2.50;;;;;;;15.72;87.95;102037.44;10319202;28;20458;-76
2022/05/17 05:51:46;;;;;;;6.28;2.28;;;;;;;15.76;88.32;102038.69;10319387;28;20465;-75
2022/05/17 05:56:46;;;;;;;3.75;2.40;;;;;;;15.83;88.33;102039.59;10336284;28;20041;-75
2022/05/17 06:01:46;;;;;;;2.00;1.77;;;;;;;15.88;88.29;102042.53;10335024;28;20030;-75
2022/05/17 06:06:47;;;;;;;6.95;2.80;;;;;;;15.94;88.25;102044.44;10337681;28;20044;-76
2022/05/17 06:11:47;;;;;;;6.20;2.70;;;;;;;16.00;88.58;102043.63;10336470;28;20101;-76
2022/05/17 06:16:48;;;;;;;5.57;3.38;;;;;;;16.04;88.64;102055.00;10336028;28;20281;-74
2022/05/17 06:21:49;;;;;;;9.18;2.70;;;;;;;16.02;89.03;102043.44;10334940;28;20134;-75
2022/05/17 06:26:50;;;;;;;11.15;4.03;;;;;;;16.08;89.63;102049.94;10334786;28;20125;-74
2022/05/17 06:31:50;;;;;;;4.85;4.05;;;;;;;16.09;90.03;102041.56;10319179;28;20038;-75
2022/05/17 06:36:50;;;;;;;5.93;3.97;;;;;;;16.12;90.66;102038.41;10334845;28;20041;-75
2022/05/17 06:41:53;;;;;;;8.15;3.03;;;;;;;16.04;95.16;102035.84;10336060;28;20041;-75
2022/05/17 06:46:54;;;;;;;11.52;3.03;;;;;;;16.12;94.27;102032.94;10317098;28;20046;-75
2022/05/17 06:51:57;;;;;;;13.25;3.08;;;;;;;16.26;95.15;102031.06;10333143;28;20040;-76
2022/05/17 06:57:01;;;;;;;5.97;3.28;;;;;;;16.65;93.80;102043.09;10334482;28;20121;-75
2022/05/17 07:02:02;;;;;;;5.75;2.88;;;;;;;17.35;92.72;102041.56;10316389;28;20034;-75
2022/05/17 07:07:03;;;;;;;8.35;3.08;;;;;;;19.66;90.72;102053.91;10334441;28;20075;-75
2022/05/17 07:17:23;;;;;;;3.72;2.95;;;;;;;19.49;95.60;102034.38;10333843;28;20449;-75
2022/05/17 07:22:23;;;;;;;5.85;2.72;;;;;;;19.68;96.09;102043.50;10316065;28;20054;-74
2022/05/17 07:27:23;;;;;;;3.60;2.00;;;;;;;19.33;93.69;102048.75;10299878;28;20046;-74
2022/05/17 07:32:24;;;;;;;5.10;1.88;;;;;;;19.37;94.04;102058.22;10337089;28;20497;-74
2022/05/17 07:37:27;;;;;;;4.45;2.58;;;;;;;19.79;92.42;102069.38;10341797;28;20105;-74
2022/05/17 07:42:27;;;;;;;4.32;2.97;;;;;;;19.96;96.47;102053.09;10342135;28;20049;-73
2022/05/17 07:47:29;;;;;;;6.22;1.98;;;;;;;20.02;96.74;102065.06;10340832;28;20050;-74
2022/05/17 07:52:31;;;;;;;3.00;2.45;;;;;;;20.55;93.55;102056.91;10340947;28;20035;-74
2022/05/17 07:57:31;;;;;;;2.38;2.17;;;;;;;21.42;92.21;102072.78;10339709;28;20084;-74
2022/05/17 08:02:32;;;;;;;1.98;1.88;;;;;;;21.61;95.63;102069.88;10338604;28;20540;-74
2022/05/17 08:07:33;;;;;;;4.07;2.55;;;;;;;21.74;92.54;102075.97;10341341;28;20431;-75
2022/05/17 08:12:33;;;;;;;3.17;2.28;;;;;;;21.73;95.32;102070.66;10307124;28;20034;-75
2022/05/17 08:17:34;;;;;;;9.15;3.25;;;;;;;22.06;90.59;102079.09;10326112;28;20042;-73
2022/05/17 08:22:34;;;;;;;4.15;2.22;;;;;;;22.21;90.02;102062.03;10339412;28;20498;-73
2022/05/17 08:27:39;;;;;;;6.22;2.25;;;;;;;22.80;88.29;102069.97;10342228;28;20046;-74
2022/05/17 08:33:14;;;;;;;4.07;2.53;;;;;;;22.94;85.72;102056.66;10309584;28;20052;-73
2022/05/17 08:38:35;;;;;;;4.38;2.35;;;;;;;23.46;86.44;102058.28;10326920;28;20450;-75
2022/05/17 08:43:54;;;;;;;1.65;1.63;;;;;;;23.86;87.17;102050.50;10321112;28;20035;-74
2022/05/17 08:48:55;;;;;;;5.00;2.25;;;;;;;24.66;87.07;102063.78;10322041;28;20180;-74
2022/05/17 08:53:55;;;;;;;2.38;2.17;;;;;;;24.36;82.13;102054.91;10338924;28;20177;-74
2022/05/17 08:58:55;;;;;;;3.75;2.38;;;;;;;24.54;80.78;102052.91;10321210;28;20042;-73
2022/05/17 09:04:18;;;;;;;7.90;3.58;;;;;;;24.34;75.24;102040.47;10321584;28;20112;-75
2022/05/17 09:09:22;;;;;;;8.18;2.20;;;;;;;24.39;77.94;102036.13;10336042;28;20030;-75
2022/05/17 09:14:42;;;;;;;3.85;2.05;;;;;;;25.84;68.51;102035.69;10335879;28;20150;-74
2022/05/17 09:19:43;;;;;;;4.82;2.38;;;;;;;26.46;67.49;102044.16;10319755;28;20080;-75
2022/05/17 09:24:45;;;;;;;3.08;2.78;;;;;;;26.32;65.77;102043.84;10339424;28;20366;-75
2022/05/17 09:29:46;;;;;;;2.17;2.00;;;;;;;26.63;63.64;102039.19;10337161;28;20039;-75
2022/05/17 09:34:46;;;;;;;2.58;2.35;;;;;;;26.69;58.82;102040.03;10319978;28;20062;-74
2022/05/17 09:39:51;;;;;;;5.18;1.80;;;;;;;25.38;59.45;102034.66;10302746;28;20085;-74
2022/05/17 09:44:52;;;;;;;5.57;3.65;;;;;;;25.38;60.31;102034.66;10335384;28;20034;-74
2022/05/17 09:55:32;;;;;;;2.45;2.33;;;;;;;24.57;61.83;102033.81;10320226;28;20034;-74
2022/05/17 10:00:41;;;;;;;3.83;2.20;;;;;;;24.83;60.35;102034.03;10335286;28;20050;-74
2022/05/17 10:05:46;;;;;;;4.15;2.03;;;;;;;25.69;58.85;102019.81;10336763;28;20034;-74
2022/05/17 10:10:48;;;;;;;3.60;2.33;;;;;;;25.17;59.50;102020.69;10320462;28;20381;-73
2022/05/17 10:15:51;;;;;;;5.68;2.70;;;;;;;27.49;57.35;102018.72;10319056;28;20105;-74
2022/05/17 10:20:52;;;;;;;1.90;1.80;;;;;;;28.53;46.47;102009.50;10334020;28;20054;-73
2022/05/17 10:26:12;;;;;;;3.28;2.78;;;;;;;26.40;51.76;102008.03;10318006;28;20046;-74
2022/05/17 10:31:22;;;;;;;2.88;2.67;;;;;;;26.22;53.63;101997.47;10317513;28;20034;-74
2022/05/17 10:36:26;;;;;;;3.63;2.78;;;;;;;27.01;53.48;101993.28;10317570;28;20045;-73
2022/05/17 10:41:26;;;;;;;4.40;3.20;;;;;;;27.73;50.36;101979.94;10333477;28;20030;-74
2022/05/17 10:46:30;;;;;;;4.00;2.85;;;;;;;27.98;51.07;101978.13;10334426;28;20034;-74
2022/05/17 10:52:02;;;;;;;2.95;2.75;;;;;;;28.77;51.90;101978.06;10332880;28;20057;-72
2022/05/17 10:57:34;;;;;;;8.05;3.80;;;;;;;27.87;48.00;101974.59;10334102;28;20037;-74
2022/05/17 11:02:52;;;;;;;7.88;3.28;;;;;;;27.63;49.53;101973.59;10334475;28;20492;-74
2022/05/17 11:07:59;;;;;;;5.45;4.65;;;;;;;28.59;46.70;101968.47;10334576;28;20192;-72
2022/05/17 11:13:14;;;;;;;4.50;4.10;;;;;;;28.97;45.06;101959.16;10334707;28;20030;-74
2022/05/17 11:18:43;;;;;;;16.45;4.80;;;;;;;29.30;47.52;101950.97;10316594;28;20043;-75
2022/05/17 11:24:15;;;;;;;6.72;4.05;;;;;;;29.01;45.41;101948.28;10333915;28;20133;-74
2022/05/17 11:29:31;;;;;;;10.18;6.00;;;;;;;27.57;50.99;101934.69;10314347;28;20038;-74
2022/05/17 11:34:35;;;;;;;7.65;5.38;;;;;;;27.62;50.32;101939.38;10316944;28;20026;-74
2022/05/17 11:39:40;;;;;;;10.25;5.03;;;;;;;27.94;49.97;101930.53;10315366;28;20121;-73
2022/05/17 11:44:45;;;;;;;6.18;5.57;;;;;;;28.49;46.92;101919.22;10333430;28;20033;-73
2022/05/17 11:49:46;;;;;;;10.52;5.22;;;;;;;28.62;46.96;101923.28;10334286;28;20034;-73
2022/05/17 11:54:47;;;;;;;7.37;6.17;;;;;;;28.88;48.00;101918.28;10332456;28;20042;-74
2022/05/17 11:59:58;;;;;;;13.00;6.55;;;;;;;29.28;46.02;101902.19;10331570;28;20256;-74
2022/05/17 12:04:59;;;;;;;8.25;4.95;;;;;;;28.08;48.94;101904.81;10330864;28;20039;-73
2022/05/17 12:10:15;;;;;;;5.72;5.22;;;;;;;28.90;47.18;101902.06;10316013;28;20026;-74
2022/05/17 12:15:24;;;;;;;7.60;4.82;;;;;;;29.44;45.27;101907.22;10332144;28;20046;-73
2022/05/17 12:21:04;;;;;;;9.20;5.03;;;;;;;27.42;47.68;101908.88;10336708;28;20076;-73
2022/05/17 12:26:28;;;;;;;5.07;4.65;;;;;;;27.27;49.92;101907.00;10339732;28;20042;-74
2022/05/17 12:31:28;;;;;;;20.60;6.50;;;;;;;28.37;48.56;101894.53;10330557;28;20056;-73
2022/05/17 12:36:30;;;;;;;10.95;7.07;;;;;;;28.64;45.61;101887.59;10338868;28;20144;-74
2022/05/17 12:46:54;;;;;;;5.82;5.28;;;;;;;28.56;45.99;101869.59;10324187;28;20038;-74
2022/05/17 12:51:58;;;;;;;4.97;4.55;;;;;;;29.14;45.50;101868.63;10321789;28;20034;-73
2022/05/17 12:56:59;;;;;;;9.40;6.82;;;;;;;29.39;44.58;101851.53;10304549;28;20077;-73
2022/05/17 13:02:01;;;;;;;20.10;5.93;;;;;;;28.45;46.41;101843.78;10337841;28;20034;-73
2022/05/17 13:07:14;;;;;;;7.45;5.45;;;;;;;28.36;46.02;101848.28;10320555;28;20078;-74
2022/05/17 13:12:15;;;;;;;5.20;4.70;;;;;;;27.85;48.69;101837.63;10338614;28;20041;-73
2022/05/17 13:17:19;;;;;;;8.32;6.25;;;;;;;26.95;49.70;101830.41;10339201;28;20061;-72
2022/05/17 13:22:22;;;;;;;8.10;5.88;;;;;;;26.40;52.02;101835.03;10321244;28;20185;-73
2022/05/17 13:27:37;;;;;;;9.05;5.65;;;;;;;25.68;53.82;101829.50;10303690;28;20046;-73
2022/05/17 13:32:39;;;;;;;5.18;4.78;;;;;;;25.90;53.83;101828.41;10336851;28;20045;-73
2022/05/17 13:37:51;;;;;;;16.98;6.72;;;;;;;25.94;53.40;101823.97;10335412;28;20128;-73
2022/05/17 13:42:52;;;;;;;8.10;6.00;;;;;;;26.07;53.82;101811.47;10336276;28;20037;-73
2022/05/17 13:47:54;;;;;;;5.47;4.97;;;;;;;26.10;53.42;101803.44;10335936;28;20034;-73
2022/05/17 13:52:56;;;;;;;11.10;5.55;;;;;;;26.34;52.81;101795.31;10336489;28;20030;-73
2022/05/17 13:57:58;;;;;;;7.55;5.20;;;;;;;26.58;52.62;101776.13;10335704;28;20042;-73
2022/05/17 14:03:00;;;;;;;7.75;5.03;;;;;;;27.05;51.67;101787.81;10335565;28;20057;-74
2022/05/17 14:13:26;;;;;;;5.28;4.78;;;;;;;27.32;51.64;101781.84;10335270;28;20046;-73
2022/05/17 14:18:28;;;;;;;9.02;4.20;;;;;;;27.34;49.88;101783.19;10334340;28;20074;-73
2022/05/17 14:23:29;;;;;;;12.82;5.70;;;;;;;27.36;48.78;101778.19;10335216;28;20316;-72
2022/05/17 14:28:30;;;;;;;4.50;3.80;;;;;;;27.45;49.53;101778.41;10333834;28;20042;-74
2022/05/17 14:33:30;;;;;;;5.50;5.00;;;;;;;27.45;48.78;101772.00;10334725;28;20112;-74
2022/05/17 14:38:30;;;;;;;5.05;3.90;;;;;;;27.63;48.61;101762.09;10317340;28;20092;-73
2022/05/17 14:43:31;;;;;;;4.00;3.65;;;;;;;27.76;48.70;101759.50;10334432;28;20394;-73
2022/05/17 14:48:31;;;;;;;13.33;5.30;;;;;;;27.79;47.27;101764.50;10333424;28;20085;-74
2022/05/17 14:53:32;;;;;;;5.07;4.55;;;;;;;27.77;48.20;101752.81;10317745;28;20751;-72
2022/05/17 14:58:32;;;;;;;9.13;4.97;;;;;;;27.88;48.98;101750.75;10317051;28;20049;-73
2022/05/17 15:03:44;;;;;;;11.13;4.85;;;;;;;28.10;49.92;101749.44;10335098;28;20343;-72
2022/05/17 15:08:45;;;;;;;3.45;3.25;;;;;;;28.74;51.05;101736.94;10334284;28;20582;-74
2022/05/17 15:13:45;;;;;;;4.70;4.32;;;;;;;28.62;51.13;101736.56;10333538;28;20097;-73
2022/05/17 15:18:48;;;;;;;5.22;3.65;;;;;;;28.16;49.65;101725.97;10334715;28;20041;-74
2022/05/17 15:23:49;;;;;;;4.22;2.78;;;;;;;28.01;49.95;101727.78;10333137;28;20136;-74
2022/05/17 15:28:51;;;;;;;3.92;3.63;;;;;;;27.88;48.87;101731.28;10316288;28;20050;-73
2022/05/17 15:33:51;;;;;;;5.40;4.32;;;;;;;27.66;48.42;101728.94;10338152;28;20121;-74
2022/05/17 15:38:52;;;;;;;12.35;5.30;;;;;;;27.56;44.64;101713.19;10333671;28;20035;-74
2022/05/17 15:43:52;;;;;;;6.97;4.57;;;;;;;27.73;48.02;101718.34;10314877;28;20067;-74
2022/05/17 15:54:16;;;;;;;10.02;5.05;;;;;;;28.08;45.73;101719.09;10336571;28;20034;-73
2022/05/17 15:59:19;;;;;;;7.30;5.32;;;;;;;27.84;44.10;101710.72;10323437;28;20046;-74
2022/05/17 16:09:38;;;;;;;9.23;5.75;;;;;;;27.30;45.34;101708.97;10326021;28;20038;-74
2022/05/17 16:14:38;;;;;;;6.10;5.50;;;;;;;27.42;45.18;101716.94;10340971;28;20041;-74
2022/05/17 16:19:41;;;;;;;7.45;5.85;;;;;;;27.57;46.27;101723.22;10322257;28;20295;-74
2022/05/17 16:24:41;;;;;;;8.38;4.45;;;;;;;27.74;46.69;101708.03;10339002;28;20046;-74
2022/05/17 16:29:43;;;;;;;7.40;5.15;;;;;;;27.67;46.48;101715.91;10340196;28;20069;-73
2022/05/17 16:34:43;;;;;;;13.40;4.90;;;;;;;27.61;48.38;101705.94;10323729;28;20047;-74
2022/05/17 16:39:44;;;;;;;4.47;4.10;;;;;;;27.35;46.56;101703.38;10339076;28;20514;-74
2022/05/17 16:44:44;;;;;;;10.67;5.00;;;;;;;27.18;46.96;101700.16;10305055;28;20124;-73
2022/05/17 16:49:45;;;;;;;4.57;4.18;;;;;;;27.46;48.32;101713.28;10338909;28;20352;-74
2022/05/17 16:54:45;;;;;;;6.03;4.45;;;;;;;27.79;48.20;101702.41;10339126;28;20037;-74
2022/05/17 16:59:46;;;;;;;4.80;3.17;;;;;;;27.96;48.55;101707.53;10339108;28;20049;-73
2022/05/17 17:04:46;;;;;;;8.73;3.97;;;;;;;27.78;48.45;101709.94;10338703;28;20054;-73
2022/05/17 17:09:47;;;;;;;5.28;3.85;;;;;;;27.42;48.50;101711.38;10338612;28;20695;-74
2022/05/17 17:14:48;;;;;;;11.63;5.80;;;;;;;26.82;49.46;101717.91;10338658;28;20034;-74
2022/05/17 17:19:48;;;;;;;5.63;5.03;;;;;;;26.25;49.86;101718.44;10320243;28;20489;-73
2022/05/17 17:24:49;;;;;;;9.75;5.18;;;;;;;25.90;50.84;101706.31;10324300;28;20066;-74
2022/05/17 17:29:49;;;;;;;7.97;4.75;;;;;;;25.95;50.67;101706.31;10340327;28;20324;-73
2022/05/17 17:40:09;;;;;;;5.35;4.70;;;;;;;25.87;50.56;101704.09;10336785;28;20069;-74
2022/05/17 17:45:12;;;;;;;8.40;5.38;;;;;;;25.58;50.14;101693.56;10336642;28;20034;-74
2022/05/17 17:50:12;;;;;;;6.38;4.35;;;;;;;25.38;50.00;101713.00;10319671;28;20398;-74
2022/05/17 17:55:12;;;;;;;9.45;5.45;;;;;;;25.02;50.30;101722.09;10319047;28;20049;-74
2022/05/17 18:00:13;;;;;;;6.68;4.80;;;;;;;24.71;50.94;101723.97;10337043;28;20489;-73
2022/05/17 18:05:14;;;;;;;4.03;3.72;;;;;;;24.44;51.36;101720.53;10320494;28;20466;-72
2022/05/17 18:10:23;;;;;;;13.85;4.90;;;;;;;24.13;51.77;101720.38;10316759;28;20101;-79
2022/05/17 18:15:36;;;;;;;6.72;4.63;;;;;;;23.89;52.25;101723.53;10322648;28;20505;-78
2022/05/17 18:20:46;;;;;;;12.68;3.92;;;;;;;23.68;52.49;101718.97;10337177;28;20547;-79
2022/05/17 18:25:47;;;;;;;6.45;5.10;;;;;;;23.49;53.30;101714.94;10319654;28;20052;-79
2022/05/17 18:30:52;;;;;;;9.25;6.30;;;;;;;23.37;53.71;101720.66;10319660;28;20056;-80
2022/05/17 18:35:54;;;;;;;5.57;4.60;;;;;;;23.32;53.36;101732.47;10301193;28;20100;-78
2022/05/17 18:40:58;;;;;;;17.23;5.68;;;;;;;23.19;53.67;101730.16;10319193;28;20442;-81
2022/05/17 18:45:58;;;;;;;11.45;5.22;;;;;;;23.05;53.62;101728.91;10302837;28;20030;-78
2022/05/17 18:50:59;;;;;;;10.38;4.05;;;;;;;22.93;53.85;101740.94;10318985;28;20096;-82
2022/05/17 18:56:00;;;;;;;6.63;4.82;;;;;;;22.82;54.30;101739.16;10301566;28;20177;-81
2022/05/17 19:01:03;;;;;;;5.60;5.07;;;;;;;22.66;54.56;101729.03;10302702;28;20061;-81
2022/05/17 19:06:06;;;;;;;9.50;4.53;;;;;;;22.50;54.47;101734.34;10320444;28;20034;-81
2022/05/17 19:16:30;;;;;;;4.15;3.45;;;;;;;22.06;54.18;101736.22;10336986;28;20042;-80
2022/05/17 19:21:36;;;;;;;16.88;3.72;;;;;;;21.73;54.46;101734.31;10344286;28;20058;-81
2022/05/17 19:26:38;;;;;;;6.03;3.43;;;;;;;21.37;54.66;101742.00;10328362;28;20038;-80
2022/05/17 19:31:40;;;;;;;6.55;4.38;;;;;;;21.01;55.08;101730.34;10303560;28;20034;-79
2022/05/17 19:42:04;;;;;;;8.35;4.53;;;;;;;20.36;55.46;101745.25;10333211;28;20109;-77
2022/05/17 19:47:05;;;;;;;10.95;4.07;;;;;;;20.03;56.34;101737.63;10317442;28;20041;-78
2022/05/17 19:52:06;;;;;;;4.55;4.15;;;;;;;19.82;58.14;101749.25;10316983;28;20458;-77
2022/05/17 19:57:06;;;;;;;6.50;3.50;;;;;;;19.62;57.85;101752.28;10303140;28;20037;-80
2022/05/17 20:02:15;;;;;;;5.93;4.20;;;;;;;19.43;57.75;101743.28;10315824;28;20049;-80
2022/05/17 20:07:17;;;;;;;4.10;3.40;;;;;;;19.29;58.44;101757.25;10317564;28;20450;-80
2022/05/17 20:12:18;;;;;;;5.13;4.53;;;;;;;19.07;58.56;101758.00;10316678;28;20386;-81
2022/05/17 20:17:20;;;;;;;5.43;3.53;;;;;;;18.86;58.69;101756.59;10301383;28;20031;-81
2022/05/17 20:22:21;;;;;;;6.45;4.22;;;;;;;18.67;59.54;101753.88;10333545;28;20050;-81
2022/05/17 20:27:23;;;;;;;5.32;4.10;;;;;;;18.61;59.76;101765.78;10317064;28;20081;-79
2022/05/17 20:32:23;;;;;;;8.57;4.43;;;;;;;18.48;60.91;101775.00;10333255;28;20496;-80
2022/05/17 20:37:24;;;;;;;7.20;5.30;;;;;;;18.35;62.11;101770.50;10333190;28;20039;-80
2022/05/17 20:42:26;;;;;;;8.38;5.30;;;;;;;18.27;61.63;101772.69;10338520;28;20030;-79
2022/05/17 20:52:46;;;;;;;7.13;6.20;;;;;;;18.06;62.34;101772.09;10340260;28;20113;-82
2022/05/17 20:57:47;;;;;;;12.55;7.88;;;;;;;17.97;62.57;101770.69;10326467;28;20508;-79
2022/05/17 21:02:47;;;;;;;16.05;9.50;;;;;;;17.99;64.60;101774.03;10353457;28;20041;-81
2022/05/17 21:07:51;;;;;;;18.33;7.50;;;;;;;18.07;64.63;101781.13;10353493;28;20370;-80
2022/05/17 21:12:52;;;;;;;13.52;7.15;;;;;;;18.06;65.10;101773.94;10343735;28;20069;-81
2022/05/17 21:17:52;;;;;;;21.25;9.57;;;;;;;17.93;64.55;101776.81;10322897;28;20070;-80
2022/05/17 21:22:53;;;;;;;18.48;10.40;;;;;;;17.91;66.96;101776.25;10308061;28;20129;-81
2022/05/17 21:27:53;;;;;;;13.95;8.40;;;;;;;17.86;66.20;101780.47;10340882;28;20050;-81
2022/05/17 21:32:54;;;;;;;15.90;9.57;;;;;;;17.70;66.64;101774.69;10337395;28;20055;-79
2022/05/17 21:37:54;;;;;;;9.52;8.55;;;;;;;17.56;67.20;101784.91;10338862;28;20532;-80
2022/05/17 21:42:57;;;;;;;16.42;9.07;;;;;;;17.42;67.44;101786.91;10305179;28;20115;-79
2022/05/17 21:47:59;;;;;;;13.85;9.40;;;;;;;17.31;67.47;101774.75;10339211;28;20038;-78
2022/05/17 21:52:59;;;;;;;19.83;10.48;;;;;;;17.32;67.78;101779.16;10337044;28;20038;-78
2022/05/17 21:58:01;;;;;;;20.23;10.82;;;;;;;17.29;67.71;101776.88;10320657;28;20033;-78
2022/05/17 22:03:04;;;;;;;17.85;10.32;;;;;;;17.21;68.07;101779.91;10336123;28;20041;-78
2022/05/17 22:08:07;;;;;;;12.88;10.07;;;;;;;17.14;68.31;101788.16;10337137;28;20065;-78
2022/05/17 22:18:26;;;;;;;13.05;10.90;;;;;;;16.99;69.22;101771.19;10336106;28;20060;-78
2022/05/17 22:23:27;;;;;;;19.95;11.68;;;;;;;16.99;69.63;101765.69;10303308;28;20058;-78
2022/05/17 22:28:27;;;;;;;30.73;11.75;;;;;;;16.92;69.46;101768.47;10319770;28;20525;-78
2022/05/17 22:33:28;;;;;;;13.45;10.40;;;;;;;16.88;69.59;101771.84;10335187;28;20069;-78
2022/05/17 22:38:29;;;;;;;16.50;9.73;;;;;;;16.80;69.99;101770.22;10319786;28;20129;-78
2022/05/17 22:43:29;;;;;;;14.98;11.00;;;;;;;16.69;69.83;101779.09;10319038;28;20478;-78
2022/05/17 22:48:30;;;;;;;21.48;11.13;;;;;;;16.62;70.49;101773.63;10318109;28;20030;-78
2022/05/17 22:53:30;;;;;;;23.05;11.20;;;;;;;16.58;70.86;101777.84;10335225;28;20062;-78
2022/05/17 22:58:31;;;;;;;12.88;10.80;;;;;;;16.47;70.69;101782.09;10303091;28;20041;-78
2022/05/17 23:03:32;;;;;;;20.95;11.73;;;;;;;16.35;71.44;101788.44;10319728;28;20030;-78
2022/05/17 23:08:33;;;;;;;16.98;11.57;;;;;;;16.29;71.34;101790.13;10305353;28;20354;-78
2022/05/17 23:13:34;;;;;;;12.02;9.95;;;;;;;16.22;71.78;101789.31;10317507;28;20038;-78
2022/05/17 23:18:34;;;;;;;18.80;11.73;;;;;;;16.17;71.67;101792.66;10319054;28;20465;-79
2022/05/17 23:23:35;;;;;;;18.90;13.95;;;;;;;16.10;72.73;101785.56;10334549;28;20078;-78
2022/05/17 23:28:36;;;;;;;19.55;12.88;;;;;;;16.01;75.85;101782.19;10303539;28;20038;-78
2022/05/17 23:33:39;;;;;;;18.77;12.50;;;;;;;15.92;75.08;101784.31;10310716;28;20096;-78
2022/05/17 23:38:40;;;;;;;25.35;14.13;;;;;;;15.76;76.50;101779.25;10327853;28;20068;-78
2022/05/17 23:43:41;;;;;;;28.00;15.32;;;;;;;15.59;77.63;101782.38;10324514;28;20122;-78
2022/05/17 23:48:42;;;;;;;18.05;12.95;;;;;;;15.49;76.36;101795.59;10310075;28;20077;-78
2022/05/17 23:53:43;;;;;;;22.20;13.82;;;;;;;15.37;78.80;101786.34;10346844;28;20030;-78
2022/05/17 23:58:43;;;;;;;20.13;13.82;;;;;;;15.31;77.33;101792.63;10332310;28;20113;-78
